Time;durP1;ratioP1;P1;durP2;ratioP2;P2;SDS_P1;SDS_P2;PMS_P1;PMS_P2;Temp;Humidity;BMP_temperature;BMP_pressure;BME280_temperature;BME280_humidity;BME280_pressure;Samples;Min_cycle;Max_cycle;Signal;HPM_P1;HPM_P2
2022/01/25 08:24:52;;;;;;;5.70;3.87;;;;;;;15.52;43.27;100876.42;1939314;72;28000;-69
2022/01/25 08:27:41;;;;;;;5.70;3.85;;;;;;;15.87;42.73;100879.11;1884482;75;28109;-69
2022/01/25 08:30:29;;;;;;;4.40;3.80;;;;;;;16.65;41.64;100871.84;1870111;75;28088;-70
2022/01/25 08:33:18;;;;;;;3.80;3.50;;;;;;;17.32;40.52;100874.95;1870886;75;28611;-69
2022/01/25 08:36:07;;;;;;;4.55;4.15;;;;;;;17.79;39.59;100867.05;1886404;75;28195;-70
2022/01/25 08:38:55;;;;;;;4.17;3.80;;;;;;;18.22;38.80;100875.34;1886201;75;28029;-69
2022/01/25 08:41:44;;;;;;;5.20;3.90;;;;;;;18.53;38.20;100870.86;1897040;75;28286;-69
2022/01/25 08:44:33;;;;;;;5.30;4.00;;;;;;;18.78;37.67;100867.06;1890407;75;28188;-68
2022/01/25 08:47:21;;;;;;;5.12;4.00;;;;;;;18.98;37.20;100869.67;1886513;75;28069;-68
2022/01/25 08:50:11;;;;;;;4.58;3.80;;;;;;;19.13;36.89;100867.05;1891544;75;28586;-68
2022/01/25 08:52:59;;;;;;;4.47;4.00;;;;;;;19.27;36.59;100869.02;1902964;73;28152;-67
2022/01/25 08:55:47;;;;;;;4.00;3.58;;;;;;;19.38;36.37;100865.91;1910371;73;28160;-68
2022/01/25 08:58:36;;;;;;;3.98;3.58;;;;;;;19.49;36.17;100872.80;1884660;75;28138;-69
2022/01/25 09:01:26;;;;;;;5.67;3.58;;;;;;;19.56;35.94;100867.81;1891595;75;28197;-69
2022/01/25 09:04:14;;;;;;;4.05;3.65;;;;;;;19.62;35.79;100864.89;1890366;75;28091;-68
2022/01/25 09:07:03;;;;;;;3.80;3.50;;;;;;;19.67;35.67;100865.20;1883497;75;28226;-68
2022/01/25 09:09:51;;;;;;;4.05;3.65;;;;;;;19.71;35.58;100866.52;1886224;74;28078;-68
2022/01/25 09:12:39;;;;;;;4.70;3.92;;;;;;;19.74;35.48;100865.62;1882358;75;28146;-70
2022/01/25 09:15:30;;;;;;;4.58;3.90;;;;;;;19.78;35.39;100874.30;1891072;75;27993;-67
2022/01/25 09:18:18;;;;;;;4.95;3.70;;;;;;;19.82;35.35;100871.53;1891790;75;28133;-70
2022/01/25 09:21:07;;;;;;;4.85;3.70;;;;;;;19.86;35.31;100874.25;1888885;75;28431;-67
2022/01/25 09:23:55;;;;;;;3.92;3.58;;;;;;;19.90;35.24;100873.70;1889066;74;28029;-68
2022/01/25 09:26:44;;;;;;;4.20;3.70;;;;;;;19.94;35.12;100868.70;1880796;75;28168;-67
2022/01/25 09:29:32;;;;;;;5.83;3.52;;;;;;;19.96;35.07;100874.82;1883139;75;28149;-69
2022/01/25 09:32:21;;;;;;;3.83;3.42;;;;;;;19.99;34.96;100879.91;1871857;75;28118;-68
2022/01/25 09:35:10;;;;;;;7.67;3.95;;;;;;;20.00;34.87;100874.77;1890667;75;28082;-68
2022/01/25 09:37:58;;;;;;;3.83;3.50;;;;;;;20.03;34.83;100878.51;1884324;75;28051;-68
2022/01/25 09:40:48;;;;;;;3.55;3.25;;;;;;;20.04;34.77;100882.94;1882423;75;28110;-69
2022/01/25 09:43:36;;;;;;;4.05;3.27;;;;;;;20.05;34.74;100882.44;1879663;75;28208;-69
2022/01/25 09:46:24;;;;;;;3.50;3.20;;;;;;;20.05;34.70;100877.80;1879695;75;28169;-69
2022/01/25 09:49:14;;;;;;;4.87;3.40;;;;;;;20.07;34.64;100881.73;1901063;75;28101;-69
2022/01/25 09:52:05;;;;;;;4.65;3.45;;;;;;;20.10;34.61;100883.55;1881086;75;28130;-67
2022/01/25 09:55:03;;;;;;;3.50;3.20;;;;;;;20.11;34.56;100879.81;1894186;75;28141;-67
2022/01/25 09:57:52;;;;;;;3.50;3.20;;;;;;;20.12;34.55;100882.03;1890738;75;28039;-67
2022/01/25 10:00:43;;;;;;;3.58;3.27;;;;;;;20.13;34.50;100880.47;1812879;78;28295;-69
2022/01/25 10:03:37;;;;;;;3.70;3.30;;;;;;;20.14;34.51;100879.96;1837708;77;28221;-69
2022/01/25 10:06:25;;;;;;;3.62;3.33;;;;;;;20.13;34.46;100877.74;1831569;77;28289;-68
2022/01/25 10:09:14;;;;;;;3.80;3.35;;;;;;;20.14;34.46;100879.96;1830025;78;28136;-67
2022/01/25 10:12:23;;;;;;;3.50;3.10;;;;;;;20.18;34.40;100869.00;1885816;75;28150;-68
2022/01/25 10:15:13;;;;;;;3.60;3.30;;;;;;;20.17;34.42;100868.66;1900186;75;28158;-68
2022/01/25 10:18:07;;;;;;;3.62;3.33;;;;;;;20.17;34.36;100869.51;1872291;75;38458;-68
2022/01/25 10:20:52;;;;;;;3.50;3.20;;;;;;;20.24;34.30;100865.55;1890962;75;28198;-69
2022/01/25 10:23:43;;;;;;;4.70;3.20;;;;;;;20.26;34.23;100859.38;1890520;75;28665;-69
2022/01/25 10:26:42;;;;;;;3.30;3.10;;;;;;;20.27;34.26;100859.22;1887548;75;28117;-69
2022/01/25 10:29:34;;;;;;;3.42;3.12;;;;;;;20.26;34.14;100858.88;1883892;75;28059;-68
2022/01/25 10:32:23;;;;;;;4.97;3.58;;;;;;;20.27;34.16;100851.03;1891805;75;28166;-69
2022/01/25 10:35:16;;;;;;;3.65;3.35;;;;;;;20.24;34.13;100847.30;1890890;75;28137;-68
2022/01/25 10:38:07;;;;;;;4.85;3.37;;;;;;;20.29;34.12;100839.92;1869255;75;28571;-68
2022/01/25 10:40:59;;;;;;;4.25;3.40;;;;;;;20.28;34.08;100840.43;1884690;75;28172;-68
2022/01/25 10:43:52;;;;;;;4.40;3.53;;;;;;;20.29;34.09;100840.77;1879602;75;28128;-69
2022/01/25 10:46:41;;;;;;;4.17;3.30;;;;;;;20.24;34.10;100836.39;1869130;76;28137;-68
2022/01/25 10:49:30;;;;;;;3.35;3.15;;;;;;;20.27;34.02;100830.57;1890257;75;28085;-68
2022/01/25 10:52:26;;;;;;;3.60;3.30;;;;;;;20.28;34.04;100832.24;1884493;75;28035;-69
2022/01/25 10:55:16;;;;;;;3.52;3.22;;;;;;;20.24;34.05;100828.20;1881030;75;28087;-69
2022/01/25 10:58:07;;;;;;;3.50;3.20;;;;;;;20.26;34.06;100823.91;1871633;75;28203;-70
2022/01/25 11:00:56;;;;;;;3.70;3.40;;;;;;;20.28;34.05;100826.79;1889304;75;28113;-69
2022/01/25 11:03:45;;;;;;;3.37;3.08;;;;;;;20.29;34.00;100812.63;1885340;75;28043;-69
2022/01/25 11:06:34;;;;;;;3.60;3.30;;;;;;;20.30;33.94;100811.61;1869565;75;28237;-69
2022/01/25 11:09:25;;;;;;;4.25;3.30;;;;;;;20.27;33.94;100807.38;1895922;75;28080;-68
2022/01/25 11:12:18;;;;;;;3.52;3.22;;;;;;;20.28;33.96;100809.59;1879503;75;28078;-68
2022/01/25 11:15:08;;;;;;;3.60;3.30;;;;;;;20.26;33.95;100804.81;1869283;76;28118;-67
2022/01/25 11:17:56;;;;;;;3.33;3.12;;;;;;;20.26;33.96;100805.67;1884380;75;28059;-68
2022/01/25 11:20:46;;;;;;;3.70;3.20;;;;;;;20.26;33.98;100804.81;1876417;75;28152;-68
2022/01/25 11:23:37;;;;;;;3.55;3.10;;;;;;;20.24;33.96;100798.19;1887433;75;28113;-70
2022/01/25 11:26:26;;;;;;;4.67;3.13;;;;;;;20.25;33.97;100796.31;1880168;74;28111;-69
2022/01/25 11:29:15;;;;;;;3.52;3.22;;;;;;;20.21;34.06;100791.70;1890757;75;28174;-68
2022/01/25 11:32:06;;;;;;;3.67;3.37;;;;;;;20.18;34.18;100786.64;1878519;75;28165;-68
2022/01/25 11:34:56;;;;;;;4.03;3.20;;;;;;;20.15;34.34;100789.73;1867380;75;28053;-67
2022/01/25 11:37:47;;;;;;;3.70;3.30;;;;;;;20.15;34.46;100784.28;1901318;75;28117;-69
2022/01/25 11:40:39;;;;;;;3.45;3.15;;;;;;;20.16;34.45;100780.53;1878189;75;28170;-69
2022/01/25 11:43:27;;;;;;;4.20;3.15;;;;;;;20.23;34.41;100777.93;1890785;75;28170;-69
2022/01/25 11:46:19;;;;;;;5.53;3.45;;;;;;;20.21;34.40;100773.97;1890808;75;28067;-68
2022/01/25 11:49:14;;;;;;;4.65;3.33;;;;;;;20.19;34.35;100767.86;1885875;75;27999;-68
2022/01/25 11:52:12;;;;;;;3.52;2.92;;;;;;;20.18;34.39;100761.23;1869566;75;28116;-68
2022/01/25 11:55:25;;;;;;;3.30;3.10;;;;;;;20.17;34.42;100762.26;1871300;75;28124;-67
2022/01/25 11:58:17;;;;;;;5.08;3.40;;;;;;;20.14;34.43;100751.20;1878966;75;28145;-68
2022/01/25 12:01:09;;;;;;;3.75;3.08;;;;;;;20.14;34.44;100749.84;1890816;75;28095;-68
2022/01/25 12:04:03;;;;;;;3.22;3.00;;;;;;;20.11;34.45;100743.92;1888831;75;28158;-67
2022/01/25 12:07:03;;;;;;;4.10;3.10;;;;;;;20.14;34.42;100739.47;1901667;75;28164;-67
2022/01/25 12:10:02;;;;;;;3.30;3.00;;;;;;;20.14;34.41;100738.93;1880092;75;28063;-67
2022/01/25 12:12:35;;;;;;;3.15;2.90;;;;;;;20.11;34.35;100737.97;1867703;75;28092;-67
2022/01/25 12:15:23;;;;;;;3.33;3.02;;;;;;;20.13;34.41;100735.89;1868171;75;28788;-70
2022/01/25 12:18:32;;;;;;;3.15;2.95;;;;;;;20.16;34.34;100729.21;1872454;75;28117;-69
2022/01/25 12:21:51;;;;;;;3.55;3.10;;;;;;;20.17;34.35;100716.73;1883439;75;28082;-68
2022/01/25 12:24:59;;;;;;;3.67;3.10;;;;;;;20.11;34.41;100714.78;1840900;77;28201;-69
2022/01/25 12:27:58;;;;;;;4.53;3.17;;;;;;;20.11;34.39;100710.69;1868994;76;28188;-69
2022/01/25 12:30:47;;;;;;;3.45;3.15;;;;;;;20.05;34.39;100705.97;1848188;76;28277;-69
2022/01/25 12:33:37;;;;;;;3.50;3.25;;;;;;;20.09;34.39;100705.09;1847898;76;28545;-69
2022/01/25 12:36:37;;;;;;;3.50;2.93;;;;;;;20.04;34.42;100697.47;1848872;76;28228;-67
2022/01/25 12:39:28;;;;;;;3.08;2.87;;;;;;;20.04;34.42;100697.47;1854353;76;28208;-69
2022/01/25 12:42:16;;;;;;;4.35;2.80;;;;;;;20.09;34.41;100690.94;1837884;77;28244;-67
2022/01/25 12:45:04;;;;;;;3.10;2.90;;;;;;;20.11;34.34;100688.86;1834933;76;28218;-67
2022/01/25 12:47:56;;;;;;;3.17;2.87;;;;;;;20.09;34.36;100684.13;1847937;76;28675;-69
2022/01/25 12:50:47;;;;;;;3.47;2.92;;;;;;;20.10;34.38;100681.70;1831829;77;28378;-68
2022/01/25 12:53:37;;;;;;;3.20;2.90;;;;;;;20.10;34.32;100675.39;1848130;76;28158;-68
2022/01/25 12:56:29;;;;;;;3.20;2.95;;;;;;;20.10;34.36;100674.88;1864089;76;28231;-69
2022/01/25 12:59:20;;;;;;;3.17;2.87;;;;;;;20.08;34.35;100663.83;1858752;76;28110;-70
2022/01/25 13:02:08;;;;;;;3.20;3.00;;;;;;;20.10;34.34;100667.21;1853750;76;28180;-68
2022/01/25 13:04:57;;;;;;;3.45;3.15;;;;;;;20.08;34.37;100660.59;1848366;76;28430;-69
2022/01/25 13:07:45;;;;;;;3.10;2.90;;;;;;;20.09;34.33;100660.08;1863162;76;28277;-69
2022/01/25 13:10:34;;;;;;;3.20;2.90;;;;;;;20.09;34.32;100652.75;1858631;76;28119;-68
2022/01/25 13:13:32;;;;;;;2.90;2.60;;;;;;;20.08;34.31;100650.20;1837856;77;28195;-69
2022/01/25 13:16:14;;;;;;;3.27;2.98;;;;;;;20.13;34.29;100651.84;1847566;76;28208;-67
2022/01/25 13:19:05;;;;;;;3.40;3.10;;;;;;;20.11;34.28;100646.58;1842789;76;28176;-68
2022/01/25 13:22:05;;;;;;;3.10;2.80;;;;;;;20.10;34.28;100648.97;1833151;76;28223;-68
2022/01/25 13:25:11;;;;;;;2.93;2.67;;;;;;;20.07;34.28;100641.70;1832493;77;28287;-68
2022/01/25 13:27:50;;;;;;;3.40;3.10;;;;;;;20.04;34.38;100637.47;1849261;76;28271;-67
2022/01/25 13:30:41;;;;;;;3.22;2.95;;;;;;;20.07;34.34;100630.79;1860813;76;28197;-67
2022/01/25 13:33:31;;;;;;;3.03;2.83;;;;;;;20.07;34.31;100628.06;1858675;76;28130;-69
2022/01/25 13:36:20;;;;;;;3.92;3.12;;;;;;;20.03;34.33;100627.58;1845184;77;28146;-68
2022/01/25 13:39:12;;;;;;;3.08;2.87;;;;;;;20.04;34.39;100624.34;1839462;77;28126;-67
2022/01/25 13:42:04;;;;;;;4.03;3.08;;;;;;;20.08;34.34;100623.77;1849772;77;28234;-68
2022/01/25 13:48:22;;;;;;;2.90;2.70;;;;;;;20.03;34.30;100619.41;1847213;77;28170;-68
2022/01/25 13:51:14;;;;;;;3.52;3.22;;;;;;;19.99;34.42;100622.19;1859870;76;28186;-68
2022/01/25 13:54:03;;;;;;;2.87;2.62;;;;;;;19.98;34.41;100616.39;1851931;76;28202;-67
2022/01/25 13:56:52;;;;;;;2.93;2.70;;;;;;;19.99;34.42;100614.01;1826521;78;28248;-67
2022/01/25 13:59:42;;;;;;;3.35;3.02;;;;;;;20.03;34.41;100616.67;1858823;76;28244;-69
2022/01/25 14:02:30;;;;;;;3.00;2.80;;;;;;;19.99;34.41;100614.86;1847499;77;28536;-69
2022/01/25 14:05:20;;;;;;;2.60;2.40;;;;;;;20.02;34.39;100610.91;1853864;76;28152;-68
2022/01/25 14:08:08;;;;;;;3.37;2.80;;;;;;;19.99;34.34;100608.05;1836467;77;28142;-68
2022/01/25 14:10:59;;;;;;;2.98;2.70;;;;;;;20.03;34.35;100610.37;1857162;77;28239;-68
2022/01/25 14:26:12;;;;;;;2.77;2.58;;;;;;;19.89;34.56;100600.67;1850974;76;28140;-67
2022/01/25 14:29:13;;;;;;;2.72;2.52;;;;;;;19.91;34.57;100600.47;1861627;75;28223;-67
2022/01/25 14:31:59;;;;;;;2.80;2.60;;;;;;;19.91;34.57;100601.31;1858588;76;28124;-69
2022/01/25 14:34:50;;;;;;;2.90;2.70;;;;;;;19.92;34.50;100600.30;1856953;76;28669;-69
2022/01/25 14:37:47;;;;;;;3.10;2.80;;;;;;;19.94;34.50;100593.28;1852186;76;28319;-69
2022/01/25 14:40:35;;;;;;;2.85;2.55;;;;;;;19.92;34.53;100597.56;1869049;76;28190;-68
2022/01/25 14:43:30;;;;;;;2.95;2.75;;;;;;;19.90;34.50;100598.80;1843196;76;28203;-68
2022/01/25 14:46:27;;;;;;;2.80;2.60;;;;;;;19.95;34.53;100596.34;1839029;76;39099;-68
2022/01/25 14:49:21;;;;;;;2.90;2.70;;;;;;;19.94;34.51;100593.28;1850641;76;28831;-68
2022/01/25 14:52:10;;;;;;;2.70;2.50;;;;;;;19.94;34.49;100589.19;1851653;76;28693;-68
2022/01/25 14:54:58;;;;;;;2.87;2.50;;;;;;;19.92;34.51;100596.72;1869279;76;28149;-68
2022/01/25 14:58:04;;;;;;;2.80;2.60;;;;;;;19.92;34.52;100592.12;1866600;76;28171;-70
2022/01/25 15:00:49;;;;;;;2.67;2.50;;;;;;;19.92;34.48;100592.63;1856635;76;28125;-70
2022/01/25 15:03:38;;;;;;;2.83;2.62;;;;;;;19.90;34.55;100588.73;1854106;76;28305;-69
2022/01/25 15:06:26;;;;;;;3.02;2.60;;;;;;;19.91;34.53;100595.86;1868128;76;28113;-68
2022/01/25 15:09:16;;;;;;;2.83;2.50;;;;;;;19.90;34.49;100594.70;1847880;76;28270;-68
2022/01/25 15:12:05;;;;;;;2.60;2.40;;;;;;;19.93;34.52;100588.84;1849313;76;28196;-68
2022/01/25 15:15:08;;;;;;;2.77;2.58;;;;;;;19.95;34.44;100593.62;1837718;77;28230;-68
2022/01/25 15:17:47;;;;;;;2.60;2.40;;;;;;;19.93;34.48;100598.39;1847343;76;28164;-68
2022/01/25 15:20:35;;;;;;;2.70;2.50;;;;;;;19.95;34.47;100594.44;1865295;76;28110;-67
2022/01/25 15:23:26;;;;;;;2.50;2.30;;;;;;;19.93;34.51;100599.75;1856830;76;28116;-69
2022/01/25 15:26:17;;;;;;;2.65;2.45;;;;;;;19.94;34.44;100598.73;1851701;76;31145;-68
2022/01/25 15:29:07;;;;;;;2.70;2.50;;;;;;;19.94;34.43;100591.41;1860477;76;28719;-68
2022/01/25 15:31:58;;;;;;;2.62;2.42;;;;;;;19.91;34.45;100593.65;1858575;76;28146;-68
2022/01/25 15:34:46;;;;;;;2.75;2.45;;;;;;;19.88;34.48;100592.69;1857212;76;38578;-68
2022/01/25 15:37:34;;;;;;;2.98;2.77;;;;;;;19.90;34.52;100592.83;1837839;77;28239;-68
2022/01/25 15:40:23;;;;;;;2.40;2.30;;;;;;;19.92;34.49;100592.63;1845528;76;28152;-67
2022/01/25 15:43:12;;;;;;;2.65;2.45;;;;;;;19.92;34.44;100596.20;1866763;76;28202;-68
2022/01/25 15:46:06;;;;;;;2.63;2.40;;;;;;;19.92;34.49;100598.08;1837842;77;28187;-68
2022/01/25 15:48:55;;;;;;;2.60;2.40;;;;;;;19.89;34.51;100595.72;1850153;76;28238;-67
2022/01/25 15:51:45;;;;;;;2.42;2.30;;;;;;;19.89;34.47;100590.27;1847784;76;28186;-67
2022/01/25 15:54:34;;;;;;;3.02;2.62;;;;;;;19.85;34.52;100592.55;1846191;76;28246;-67
2022/01/25 15:57:22;;;;;;;2.50;2.30;;;;;;;19.81;34.55;100592.58;1855497;76;28160;-68
2022/01/25 16:00:11;;;;;;;2.90;2.37;;;;;;;19.83;34.60;100600.08;1849739;76;28121;-68
2022/01/25 16:03:00;;;;;;;2.42;2.22;;;;;;;19.83;34.60;100596.50;1862464;76;28274;-68
2022/01/25 16:05:50;;;;;;;2.55;2.42;;;;;;;19.85;34.52;100595.78;1838935;76;28195;-68
2022/01/25 16:08:39;;;;;;;2.50;2.30;;;;;;;19.83;34.55;100600.08;1852408;76;28266;-68
2022/01/25 16:11:28;;;;;;;2.70;2.50;;;;;;;19.84;34.53;100599.53;1837632;77;28312;-68
2022/01/25 16:14:17;;;;;;;2.35;2.25;;;;;;;19.89;34.53;100602.03;1843639;76;28157;-68
2022/01/25 16:17:07;;;;;;;2.35;2.25;;;;;;;19.87;34.45;100601.89;1847818;76;28230;-70
2022/01/25 16:19:55;;;;;;;2.52;2.33;;;;;;;19.86;34.53;100604.31;1869086;76;28124;-69
2022/01/25 16:22:44;;;;;;;2.60;2.40;;;;;;;19.83;34.50;100600.59;1848051;76;28219;-68
2022/01/25 16:25:33;;;;;;;2.50;2.30;;;;;;;19.83;34.54;100604.67;1848042;76;28195;-68
2022/01/25 16:28:21;;;;;;;2.43;2.27;;;;;;;19.81;34.57;100606.20;1850375;76;28207;-69
2022/01/25 16:31:18;;;;;;;2.37;2.27;;;;;;;19.82;34.50;100598.88;1847249;75;32095;-69
2022/01/25 16:34:04;;;;;;;2.30;2.20;;;;;;;19.83;34.59;100601.95;1861091;76;28329;-69
2022/01/25 16:36:53;;;;;;;2.60;2.47;;;;;;;19.83;34.53;100608.77;1836042;77;28282;-69
2022/01/25 16:39:41;;;;;;;2.62;2.10;;;;;;;19.83;34.58;100612.86;1853442;76;28331;-68
2022/01/25 16:42:30;;;;;;;3.58;2.60;;;;;;;19.80;34.55;100613.23;1857372;77;28213;-68
2022/01/25 16:45:20;;;;;;;2.40;2.30;;;;;;;19.80;34.51;100612.72;1836225;77;28229;-68
2022/01/25 16:48:09;;;;;;;2.22;2.12;;;;;;;19.81;34.55;100614.93;1836450;77;28238;-70
2022/01/25 16:50:57;;;;;;;2.50;2.40;;;;;;;19.80;34.49;100614.59;1838569;77;28771;-68
2022/01/25 16:53:47;;;;;;;2.33;2.22;;;;;;;19.79;34.56;100617.00;1851231;76;29207;-68
2022/01/25 16:56:35;;;;;;;2.90;2.40;;;;;;;19.77;34.52;100614.45;1857239;77;28118;-68
2022/01/25 16:59:23;;;;;;;2.40;2.20;;;;;;;19.80;34.50;100622.25;1847919;76;28227;-68
2022/01/25 17:02:13;;;;;;;2.50;2.30;;;;;;;19.81;34.50;100625.30;1851439;76;28266;-68
2022/01/25 17:05:01;;;;;;;2.58;2.37;;;;;;;19.78;34.52;100620.75;1838243;77;28184;-68
2022/01/25 17:07:49;;;;;;;2.47;2.10;;;;;;;19.78;34.57;100625.70;1850541;77;28188;-68
2022/01/25 17:10:38;;;;;;;2.45;2.30;;;;;;;19.77;34.50;100624.50;1847132;77;28180;-69
2022/01/25 17:13:28;;;;;;;2.45;2.25;;;;;;;19.77;34.53;100617.17;1842500;77;28517;-68
2022/01/25 17:16:17;;;;;;;2.27;2.17;;;;;;;19.79;34.58;100623.82;1858292;76;28253;-69
2022/01/25 17:19:06;;;;;;;2.40;2.20;;;;;;;19.80;34.49;100628.22;1864330;76;28117;-68
2022/01/25 17:21:56;;;;;;;2.37;2.27;;;;;;;19.79;34.49;100636.09;1853584;77;28162;-68
2022/01/25 17:24:44;;;;;;;2.58;2.37;;;;;;;19.80;34.46;100639.12;1842177;77;28369;-69
2022/01/25 17:27:32;;;;;;;2.55;2.35;;;;;;;19.73;34.54;100642.27;1847099;76;28117;-68
2022/01/25 17:30:21;;;;;;;2.92;2.62;;;;;;;19.74;34.55;100638.53;1848099;76;28218;-67
2022/01/25 17:33:10;;;;;;;2.58;2.37;;;;;;;19.75;34.58;100645.66;1852197;75;28353;-68
2022/01/25 17:35:58;;;;;;;2.58;2.37;;;;;;;19.75;34.51;100640.20;1860712;76;28108;-68
2022/01/25 17:38:47;;;;;;;2.20;2.10;;;;;;;19.77;34.52;100644.95;1878619;76;28134;-68
2022/01/25 17:41:36;;;;;;;2.23;2.10;;;;;;;19.76;34.52;100648.72;1875860;76;28160;-69
2022/01/25 17:44:24;;;;;;;2.60;2.40;;;;;;;19.77;34.50;100653.13;1865253;76;28143;-69
2022/01/25 17:47:13;;;;;;;2.12;2.02;;;;;;;19.73;34.55;100653.17;1865951;76;28238;-69
2022/01/25 17:50:01;;;;;;;2.30;2.20;;;;;;;19.76;34.52;100658.27;1868396;76;28277;-68
2022/01/25 17:52:49;;;;;;;2.42;2.30;;;;;;;19.75;34.51;100662.02;1867947;76;28195;-68
2022/01/25 17:55:38;;;;;;;2.42;2.22;;;;;;;19.76;34.51;100662.35;1863206;76;28137;-69
2022/01/25 17:58:27;;;;;;;2.58;2.40;;;;;;;19.71;34.54;100661.55;1857897;76;28175;-70
2022/01/25 18:01:16;;;;;;;2.20;2.10;;;;;;;19.72;34.52;100664.59;1873393;76;28310;-68
2022/01/25 18:04:04;;;;;;;2.50;2.30;;;;;;;19.76;34.50;100664.57;1868054;76;28215;-69
2022/01/25 18:06:53;;;;;;;2.27;2.17;;;;;;;19.72;34.51;100661.05;1862407;76;28148;-69
2022/01/25 18:09:42;;;;;;;2.30;2.10;;;;;;;19.75;34.54;100664.73;1857261;76;28117;-69
2022/01/25 18:12:31;;;;;;;2.17;2.08;;;;;;;19.69;34.53;100661.41;1874670;76;28117;-68
2022/01/25 18:15:19;;;;;;;2.20;2.10;;;;;;;19.69;34.55;100660.05;1866463;76;28208;-68
2022/01/25 18:18:07;;;;;;;2.15;2.05;;;;;;;19.67;34.54;100667.06;1861026;76;28175;-68
2022/01/25 18:20:57;;;;;;;2.37;2.17;;;;;;;19.71;34.51;100670.24;1870476;76;28275;-68
2022/01/25 18:23:53;;;;;;;2.40;2.30;;;;;;;19.69;34.47;100669.08;1867938;76;28242;-68
2022/01/25 18:29:28;;;;;;;2.30;2.20;;;;;;;19.70;34.48;100673.98;1860720;76;28230;-68
2022/01/25 18:32:16;;;;;;;2.60;2.40;;;;;;;19.66;34.57;100681.70;1878720;76;28186;-67
2022/01/25 18:35:07;;;;;;;2.22;2.12;;;;;;;19.67;34.50;100682.56;1857097;76;28317;-67
2022/01/25 18:37:56;;;;;;;2.20;2.10;;;;;;;19.71;34.44;100683.36;1860169;76;28275;-68
2022/01/25 18:40:46;;;;;;;2.35;2.15;;;;;;;19.68;34.47;100683.73;1860142;76;28681;-68
2022/01/25 18:43:35;;;;;;;2.97;2.67;;;;;;;19.68;34.49;100690.55;1878732;76;28168;-67
2022/01/25 18:46:23;;;;;;;2.30;2.20;;;;;;;19.69;34.45;100688.67;1857351;76;28204;-68
2022/01/25 18:49:11;;;;;;;2.30;2.20;;;;;;;19.72;34.40;100694.58;1860344;76;28175;-68
2022/01/25 18:52:00;;;;;;;2.50;2.30;;;;;;;19.67;34.44;100691.59;1859946;76;28155;-68
2022/01/25 18:54:49;;;;;;;2.08;1.98;;;;;;;19.68;34.49;100697.87;1871068;76;28187;-69
2022/01/25 18:57:37;;;;;;;2.37;2.20;;;;;;;19.69;34.46;100700.94;1868313;76;28100;-68
2022/01/25 19:00:26;;;;;;;2.17;2.08;;;;;;;19.74;34.42;100699.87;1864162;76;28168;-68
2022/01/25 19:03:16;;;;;;;2.33;2.22;;;;;;;19.71;34.34;100703.81;1846744;77;28195;-68
2022/01/25 19:06:05;;;;;;;2.30;2.20;;;;;;;19.67;34.42;100698.41;1875103;76;28192;-68
2022/01/25 19:08:53;;;;;;;2.10;2.00;;;;;;;19.68;34.35;100693.78;1856385;76;28296;-68
2022/01/25 19:11:44;;;;;;;2.17;2.08;;;;;;;19.63;34.42;100692.98;1846869;77;28344;-68
2022/01/25 19:14:33;;;;;;;2.30;2.20;;;;;;;19.65;34.42;100700.45;1850132;76;28248;-68
2022/01/25 19:17:21;;;;;;;2.50;2.30;;;;;;;19.67;34.39;100705.73;1858556;76;28231;-68
2022/01/25 19:20:11;;;;;;;2.50;2.30;;;;;;;19.66;34.42;100702.16;1858695;76;28184;-67
2022/01/25 19:22:59;;;;;;;2.52;2.33;;;;;;;19.67;34.33;100699.77;1861223;76;28113;-67
2022/01/25 19:25:48;;;;;;;2.40;2.30;;;;;;;19.69;34.36;100698.21;1846280;77;28706;-67
2022/01/25 19:28:37;;;;;;;2.37;2.22;;;;;;;19.71;34.37;100702.45;1857981;76;28180;-68
2022/01/25 19:31:25;;;;;;;2.62;2.42;;;;;;;19.73;34.36;100700.88;1860610;76;28260;-69
2022/01/25 19:34:14;;;;;;;3.63;2.90;;;;;;;19.75;34.31;100706.48;1858464;76;28247;-69
2022/01/25 19:37:06;;;;;;;3.30;3.00;;;;;;;19.65;34.22;100703.17;1851724;76;28239;-68
2022/01/25 19:39:56;;;;;;;3.80;3.50;;;;;;;19.72;34.21;100708.75;1847094;77;28153;-69
2022/01/25 19:42:43;;;;;;;3.85;3.50;;;;;;;19.73;34.23;100704.98;1832444;75;28236;-67
2022/01/25 19:45:32;;;;;;;4.70;3.58;;;;;;;19.69;34.28;100709.11;1856268;74;28117;-68
2022/01/25 19:48:20;;;;;;;4.12;3.72;;;;;;;19.57;34.42;100694.24;1864334;76;28117;-70
2022/01/25 19:51:11;;;;;;;4.87;4.20;;;;;;;19.66;34.47;100706.75;1847277;76;28238;-70
2022/01/25 19:54:01;;;;;;;4.95;4.30;;;;;;;19.65;34.51;100705.08;1828408;77;28162;-71
2022/01/25 19:56:57;;;;;;;5.75;4.47;;;;;;;19.67;34.53;100703.01;1858705;76;28165;-70
2022/01/25 19:59:42;;;;;;;5.47;4.78;;;;;;;19.69;34.49;100702.30;1840030;76;28248;-70
2022/01/25 20:02:38;;;;;;;4.83;4.42;;;;;;;19.70;34.55;100704.83;1834921;77;28293;-69
2022/01/25 20:05:20;;;;;;;5.78;4.87;;;;;;;19.72;34.51;100701.39;1847608;76;28250;-69
2022/01/25 20:08:09;;;;;;;5.80;5.10;;;;;;;19.73;34.52;100703.61;1838251;76;28086;-68
2022/01/25 20:11:00;;;;;;;5.90;5.28;;;;;;;19.77;34.50;100707.14;1850625;76;28199;-69
2022/01/25 20:13:48;;;;;;;7.58;5.33;;;;;;;19.80;34.46;100705.92;1858482;76;28152;-69
2022/01/25 20:16:38;;;;;;;7.62;5.70;;;;;;;19.80;34.45;100705.92;1855404;74;28287;-71
2022/01/25 20:19:29;;;;;;;7.47;5.65;;;;;;;19.82;34.46;100704.70;1845489;76;28217;-71
2022/01/25 20:22:26;;;;;;;7.47;5.80;;;;;;;19.86;34.45;100710.64;1846119;76;28223;-70
2022/01/25 20:28:13;;;;;;;6.90;5.95;;;;;;;19.85;34.44;100708.42;1838067;76;28275;-69
2022/01/25 20:33:49;;;;;;;7.35;5.72;;;;;;;19.89;34.44;100714.34;1858619;76;28192;-70
2022/01/25 20:36:39;;;;;;;7.87;6.30;;;;;;;19.89;34.39;100711.09;1852104;76;28134;-69
2022/01/25 20:39:28;;;;;;;10.40;6.37;;;;;;;19.90;34.42;100709.23;1852781;76;28292;-69
2022/01/25 20:42:17;;;;;;;7.90;6.33;;;;;;;19.88;34.45;100712.66;1863469;76;28139;-68
2022/01/25 20:45:05;;;;;;;6.67;5.97;;;;;;;19.91;34.42;100716.36;1863883;74;28291;-68
2022/01/25 20:47:54;;;;;;;8.13;5.83;;;;;;;19.93;34.40;100712.92;1851490;74;28254;-68
2022/01/25 20:50:50;;;;;;;7.55;6.40;;;;;;;19.95;34.38;100710.88;1851774;76;28183;-69
2022/01/25 20:53:39;;;;;;;9.23;6.25;;;;;;;19.96;34.41;100713.92;1864180;76;28614;-70
2022/01/25 20:56:28;;;;;;;6.83;6.12;;;;;;;19.95;34.35;100717.16;1867834;76;28233;-70
2022/01/25 20:59:20;;;;;;;7.45;6.05;;;;;;;19.92;34.39;100718.91;1859578;76;28107;-68
2022/01/25 21:02:08;;;;;;;8.77;6.53;;;;;;;19.94;34.39;100718.20;1872233;76;28102;-69
2022/01/25 21:07:46;;;;;;;7.30;6.12;;;;;;;19.96;34.43;100712.55;1861210;76;28244;-69
2022/01/25 21:10:35;;;;;;;8.43;6.60;;;;;;;19.93;34.45;100714.28;1869693;74;28133;-69
2022/01/25 21:13:23;;;;;;;7.10;5.92;;;;;;;19.96;34.42;100715.28;1871619;74;28248;-70
2022/01/25 21:16:13;;;;;;;8.35;6.22;;;;;;;19.96;34.42;100711.19;1857975;76;32006;-70
2022/01/25 21:19:01;;;;;;;8.78;6.37;;;;;;;19.98;34.42;100711.33;1861670;76;28282;-70
2022/01/25 21:21:50;;;;;;;7.62;6.10;;;;;;;19.99;34.42;100709.46;1852558;74;28241;-68
2022/01/25 21:24:39;;;;;;;9.13;6.12;;;;;;;19.96;34.43;100707.09;1861916;76;28291;-68
2022/01/25 21:27:27;;;;;;;6.83;6.10;;;;;;;19.96;34.44;100703.01;1849514;76;28431;-68
2022/01/25 21:30:16;;;;;;;7.00;6.08;;;;;;;19.96;34.45;100701.64;1864931;76;28183;-68
2022/01/25 21:33:11;;;;;;;8.33;6.20;;;;;;;19.97;34.43;100699.27;1851555;76;28192;-69
2022/01/25 21:35:56;;;;;;;7.75;6.05;;;;;;;19.97;34.47;100697.90;1873157;76;28146;-69
2022/01/25 21:38:46;;;;;;;6.40;5.70;;;;;;;20.00;34.42;100700.23;1839850;75;28272;-68
2022/01/25 21:41:34;;;;;;;6.67;5.97;;;;;;;20.00;34.41;100701.08;1842127;77;28297;-70
2022/01/25 21:44:23;;;;;;;7.70;6.30;;;;;;;20.00;34.42;100698.86;1847997;77;28169;-68
2022/01/25 21:47:11;;;;;;;6.25;5.65;;;;;;;20.04;34.43;100701.56;1837749;77;28171;-70
2022/01/25 21:49:59;;;;;;;8.08;6.47;;;;;;;20.04;34.39;100702.08;1847845;76;28134;-68
2022/01/25 21:52:49;;;;;;;6.55;5.65;;;;;;;20.03;34.42;100705.31;1858342;76;28479;-68
2022/01/25 21:55:41;;;;;;;7.22;6.17;;;;;;;20.02;34.42;100700.91;1847260;77;28155;-69
2022/01/25 21:58:30;;;;;;;7.70;6.17;;;;;;;20.00;34.44;100693.41;1858159;76;28183;-69
2022/01/25 22:01:18;;;;;;;7.17;5.70;;;;;;;20.01;34.48;100695.11;1843414;76;28210;-68